Time;durP1;ratioP1;P1;durP2;ratioP2;P2;SDS_P1;SDS_P2;PMS_P1;PMS_P2;Temp;Humidity;BMP_temperature;BMP_pressure;BME280_temperature;BME280_humidity;BME280_pressure;Samples;Min_cycle;Max_cycle;Signal;HPM_P1;HPM_P2
2023/10/17 00:02:50;;;;;;;1.30;0.80;;;;;;;;;;6167536;28;20031;-73
2023/10/17 00:05:51;;;;;;;1.00;0.70;;;;;;;;;;6166810;28;20034;-75
2023/10/17 00:08:51;;;;;;;1.23;0.80;;;;;;;;;;6168077;28;20418;-73
2023/10/17 00:21:27;;;;;;;1.33;0.85;;;;;;;;;;6161676;28;20104;-73
2023/10/17 00:24:27;;;;;;;1.52;0.80;;;;;;;;;;6167152;28;20029;-73
2023/10/17 00:27:27;;;;;;;1.57;0.70;;;;;;;;;;6171579;28;20031;-73
2023/10/17 00:30:30;;;;;;;0.90;0.70;;;;;;;;;;6171371;28;20037;-73
2023/10/17 00:33:32;;;;;;;0.85;0.68;;;;;;;;;;6169070;28;20611;-73
2023/10/17 00:36:33;;;;;;;1.88;0.60;;;;;;;;;;6167591;28;20463;-73
2023/10/17 00:39:36;;;;;;;0.50;0.50;;;;;;;;;;6166633;28;20070;-73
2023/10/17 00:42:36;;;;;;;0.70;0.60;;;;;;;;;;6167041;28;20088;-74
2023/10/17 00:45:37;;;;;;;1.50;0.73;;;;;;;;;;6167575;28;20019;-75
2023/10/17 00:48:38;;;;;;;1.05;0.70;;;;;;;;;;6168783;28;20031;-74
2023/10/17 00:51:39;;;;;;;1.33;0.73;;;;;;;;;;6166059;28;20214;-73
2023/10/17 00:54:39;;;;;;;1.13;0.80;;;;;;;;;;6167164;28;20052;-75
2023/10/17 00:57:40;;;;;;;1.03;0.77;;;;;;;;;;6171746;28;20046;-75
2023/10/17 01:00:45;;;;;;;1.93;0.77;;;;;;;;;;6166787;28;20403;-73
2023/10/17 01:03:45;;;;;;;1.02;0.80;;;;;;;;;;6170196;28;20026;-73
2023/10/17 01:06:46;;;;;;;0.80;0.60;;;;;;;;;;6172139;28;20037;-74
2023/10/17 01:09:48;;;;;;;1.27;0.67;;;;;;;;;;6159349;28;20495;-73
2023/10/17 01:12:56;;;;;;;0.95;0.68;;;;;;;;;;6162325;28;20533;-73
2023/10/17 01:15:57;;;;;;;1.23;0.80;;;;;;;;;;6158836;28;20124;-73
2023/10/17 01:19:02;;;;;;;1.20;0.65;;;;;;;;;;6166633;28;20026;-73
2023/10/17 01:22:04;;;;;;;0.90;0.68;;;;;;;;;;6168413;28;20035;-73
2023/10/17 01:25:17;;;;;;;1.00;0.60;;;;;;;;;;6170077;28;20031;-73
2023/10/17 01:28:17;;;;;;;0.90;0.63;;;;;;;;;;6170444;28;20399;-73
2023/10/17 01:31:24;;;;;;;1.93;0.60;;;;;;;;;;6167968;28;20031;-76
2023/10/17 01:34:25;;;;;;;0.68;0.50;;;;;;;;;;6167382;28;20019;-75
2023/10/17 01:37:25;;;;;;;0.97;0.60;;;;;;;;;;6167875;28;20058;-73
2023/10/17 01:40:28;;;;;;;1.00;0.70;;;;;;;;;;6168590;28;20067;-74
2023/10/17 01:43:30;;;;;;;0.85;0.70;;;;;;;;;;6169284;28;20097;-73
2023/10/17 01:46:30;;;;;;;0.93;0.70;;;;;;;;;;6166624;28;20035;-73
2023/10/17 01:49:31;;;;;;;1.70;0.90;;;;;;;;;;6168688;28;20095;-73
2023/10/17 01:52:31;;;;;;;0.83;0.60;;;;;;;;;;6165417;28;20493;-73
2023/10/17 01:55:35;;;;;;;0.87;0.57;;;;;;;;;;6167715;28;20030;-73
2023/10/17 01:58:37;;;;;;;1.00;0.73;;;;;;;;;;6173391;28;20023;-73
2023/10/17 02:01:40;;;;;;;1.08;0.73;;;;;;;;;;6171567;28;20494;-74
2023/10/17 02:04:40;;;;;;;1.25;0.90;;;;;;;;;;6167017;28;20472;-73
2023/10/17 02:07:41;;;;;;;1.10;0.80;;;;;;;;;;6169372;28;20053;-73
2023/10/17 02:10:41;;;;;;;1.27;0.90;;;;;;;;;;6168612;28;20026;-73
2023/10/17 02:13:41;;;;;;;0.70;0.60;;;;;;;;;;6167763;28;20022;-74
2023/10/17 02:16:41;;;;;;;1.07;0.80;;;;;;;;;;6173211;28;20026;-74
2023/10/17 02:19:44;;;;;;;2.17;0.80;;;;;;;;;;6168661;28;20217;-73
2023/10/17 02:22:44;;;;;;;0.93;0.63;;;;;;;;;;6144848;28;20055;-74
2023/10/17 02:25:45;;;;;;;1.13;0.80;;;;;;;;;;6167284;28;20031;-73
2023/10/17 02:28:49;;;;;;;0.70;0.50;;;;;;;;;;6168054;28;20356;-73
2023/10/17 02:31:52;;;;;;;2.78;0.80;;;;;;;;;;6167294;28;20333;-73
2023/10/17 02:34:52;;;;;;;1.00;0.60;;;;;;;;;;6168505;28;20046;-73
2023/10/17 02:37:52;;;;;;;1.20;0.83;;;;;;;;;;6169044;28;20439;-74
2023/10/17 02:40:54;;;;;;;0.70;0.60;;;;;;;;;;6191036;28;20586;-73
2023/10/17 02:43:54;;;;;;;1.10;0.70;;;;;;;;;;6219240;28;20023;-74
2023/10/17 02:46:58;;;;;;;2.50;0.80;;;;;;;;;;6222697;28;20034;-73
2023/10/17 02:50:00;;;;;;;2.50;0.77;;;;;;;;;;6188834;28;20231;-73
2023/10/17 02:53:01;;;;;;;0.65;0.60;;;;;;;;;;6213383;28;20030;-72
2023/10/17 02:56:18;;;;;;;0.73;0.50;;;;;;;;;;6238656;28;20028;-76
2023/10/17 02:59:21;;;;;;;1.02;0.70;;;;;;;;;;6189256;28;20066;-73
2023/10/17 03:02:30;;;;;;;2.63;0.68;;;;;;;;;;6204793;28;20470;-73
2023/10/17 03:05:30;;;;;;;1.88;0.73;;;;;;;;;;6215117;28;20042;-73
2023/10/17 03:08:36;;;;;;;0.70;0.60;;;;;;;;;;6188504;28;20062;-72
2023/10/17 03:11:37;;;;;;;1.30;0.70;;;;;;;;;;6178936;28;20036;-73
2023/10/17 03:17:39;;;;;;;1.00;0.70;;;;;;;;;;6208239;28;20030;-73
2023/10/17 03:20:41;;;;;;;0.95;0.75;;;;;;;;;;6214781;28;20657;-73
2023/10/17 03:23:46;;;;;;;1.55;0.82;;;;;;;;;;6172775;28;20030;-74
2023/10/17 03:27:03;;;;;;;1.42;0.88;;;;;;;;;;6197471;28;20027;-74
2023/10/17 03:30:11;;;;;;;0.85;0.70;;;;;;;;;;6179833;28;20117;-76
2023/10/17 03:33:14;;;;;;;0.93;0.60;;;;;;;;;;6252759;28;20403;-73
2023/10/17 03:39:46;;;;;;;0.98;0.70;;;;;;;;;;6212006;28;20054;-74
2023/10/17 03:42:53;;;;;;;1.80;0.93;;;;;;;;;;6189589;28;20030;-72
2023/10/17 03:45:56;;;;;;;1.00;0.80;;;;;;;;;;6202942;28;20040;-72
2023/10/17 03:48:57;;;;;;;1.13;0.80;;;;;;;;;;6196911;28;20026;-74
2023/10/17 03:52:03;;;;;;;0.73;0.60;;;;;;;;;;6194923;28;20076;-73
2023/10/17 03:55:09;;;;;;;0.43;0.40;;;;;;;;;;6186094;28;20450;-73
2023/10/17 04:01:23;;;;;;;0.90;0.65;;;;;;;;;;6175136;28;20035;-74
2023/10/17 04:04:47;;;;;;;1.17;0.80;;;;;;;;;;6195451;28;20029;-74
2023/10/17 04:07:51;;;;;;;1.00;0.68;;;;;;;;;;6183280;28;20034;-73
2023/10/17 04:11:08;;;;;;;0.73;0.60;;;;;;;;;;6183491;28;20045;-73
2023/10/17 04:14:10;;;;;;;0.70;0.57;;;;;;;;;;6176378;28;20037;-73
2023/10/17 04:17:14;;;;;;;1.20;0.75;;;;;;;;;;6176914;28;20455;-74
2023/10/17 04:20:16;;;;;;;1.52;0.77;;;;;;;;;;6175706;28;21502;-74
2023/10/17 04:23:21;;;;;;;1.17;0.60;;;;;;;;;;6176098;28;20080;-73
2023/10/17 04:26:27;;;;;;;0.57;0.50;;;;;;;;;;6176633;28;20026;-73
2023/10/17 04:29:29;;;;;;;0.88;0.60;;;;;;;;;;6187810;28;20031;-73
2023/10/17 04:32:33;;;;;;;1.50;0.90;;;;;;;;;;6175119;28;20120;-73
2023/10/17 04:35:34;;;;;;;1.42;0.80;;;;;;;;;;6175876;28;20042;-73
2023/10/17 04:38:38;;;;;;;1.30;0.90;;;;;;;;;;6176222;28;20516;-75
2023/10/17 04:45:01;;;;;;;1.13;0.85;;;;;;;;;;6171519;28;20121;-73
2023/10/17 04:48:11;;;;;;;0.60;0.60;;;;;;;;;;6177175;28;20450;-73
2023/10/17 04:54:31;;;;;;;1.10;0.63;;;;;;;;;;6165570;28;20511;-73
2023/10/17 04:58:30;;;;;;;0.77;0.63;;;;;;;;;;6175898;28;20034;-74
2023/10/17 05:04:02;;;;;;;1.80;0.80;;;;;;;;;;6180380;28;20030;-75
2023/10/17 06:19:43;;;;;;;2.17;1.55;;;;;;;;;;6172950;28;20063;-76
2023/10/17 06:23:23;;;;;;;2.70;1.40;;;;;;;;;;6176116;28;20449;-75
2023/10/17 06:35:38;;;;;;;2.88;1.95;;;;;;;;;;6187615;28;20030;-76
2023/10/17 06:38:47;;;;;;;3.25;1.80;;;;;;;;;;6176016;28;20086;-76
2023/10/17 06:41:48;;;;;;;2.58;1.65;;;;;;;;;;6180146;28;20084;-76
2023/10/17 06:44:54;;;;;;;3.07;1.73;;;;;;;;;;6172427;28;23445;-76
2023/10/17 06:47:58;;;;;;;2.70;1.60;;;;;;;;;;6172098;28;20065;-76
2023/10/17 06:51:50;;;;;;;3.53;1.80;;;;;;;;;;6172504;28;20038;-75
2023/10/17 06:54:24;;;;;;;2.88;1.70;;;;;;;;;;6169673;28;20027;-76
2023/10/17 06:57:24;;;;;;;3.38;1.60;;;;;;;;;;6194975;28;20018;-75
2023/10/17 07:00:27;;;;;;;1.60;1.33;;;;;;;;;;6176210;28;20682;-75
2023/10/17 07:03:28;;;;;;;2.35;1.50;;;;;;;;;;6187817;28;20085;-75
2023/10/17 07:06:29;;;;;;;2.22;1.65;;;;;;;;;;6192280;28;20033;-76
2023/10/17 07:09:35;;;;;;;2.70;1.70;;;;;;;;;;6194794;28;20038;-75
2023/10/17 07:12:38;;;;;;;1.88;1.52;;;;;;;;;;6172525;28;20020;-75
2023/10/17 07:15:39;;;;;;;2.08;1.48;;;;;;;;;;6170287;28;20372;-76
2023/10/17 07:18:51;;;;;;;3.35;1.63;;;;;;;;;;6159394;28;20035;-75
2023/10/17 07:25:02;;;;;;;2.25;1.65;;;;;;;;;;6195666;28;19906;-76
2023/10/17 07:28:02;;;;;;;1.58;1.45;;;;;;;;;;6179691;28;20034;-75
2023/10/17 07:31:02;;;;;;;2.50;1.97;;;;;;;;;;6194989;28;20042;-76
2023/10/17 07:43:12;;;;;;;2.77;1.77;;;;;;;;;;6179254;28;20463;-75
2023/10/17 07:46:18;;;;;;;2.80;1.43;;;;;;;;;;6194292;28;20534;-75
2023/10/17 07:49:26;;;;;;;1.98;1.60;;;;;;;;;;6195774;28;20030;-75
2023/10/17 07:52:30;;;;;;;4.05;1.77;;;;;;;;;;6194460;28;20014;-75
2023/10/17 07:55:38;;;;;;;2.47;1.88;;;;;;;;;;6196374;28;20072;-75
2023/10/17 07:58:45;;;;;;;2.63;1.77;;;;;;;;;;6195903;28;20031;-75
2023/10/17 08:01:46;;;;;;;2.17;1.92;;;;;;;;;;6199824;28;20057;-75
2023/10/17 08:04:48;;;;;;;2.55;1.77;;;;;;;;;;6196446;28;20040;-75
2023/10/17 08:11:23;;;;;;;2.30;1.50;;;;;;;;;;6184901;28;20414;-75
2023/10/17 08:14:44;;;;;;;1.85;1.40;;;;;;;;;;6171199;28;20034;-75
2023/10/17 08:17:45;;;;;;;2.38;1.70;;;;;;;;;;6177713;28;20081;-73
2023/10/17 08:20:45;;;;;;;3.30;1.87;;;;;;;;;;6193543;28;20079;-72
2023/10/17 08:23:46;;;;;;;1.97;1.40;;;;;;;;;;6179830;28;20101;-72
2023/10/17 08:27:12;;;;;;;1.77;1.38;;;;;;;;;;6214560;28;20113;-72
2023/10/17 08:30:40;;;;;;;1.48;1.38;;;;;;;;;;6201315;28;20052;-74
2023/10/17 08:33:44;;;;;;;2.65;1.42;;;;;;;;;;6197335;28;20075;-72
2023/10/17 08:36:47;;;;;;;1.67;1.40;;;;;;;;;;6187799;28;20027;-72
2023/10/17 08:42:49;;;;;;;1.43;1.27;;;;;;;;;;6171224;28;20019;-73
2023/10/17 08:45:54;;;;;;;2.38;1.15;;;;;;;;;;6169699;28;20031;-73
2023/10/17 08:48:56;;;;;;;1.40;1.20;;;;;;;;;;6171108;28;20105;-74
2023/10/17 08:51:56;;;;;;;1.75;1.10;;;;;;;;;;6169931;28;20027;-73
2023/10/17 08:54:56;;;;;;;2.77;1.10;;;;;;;;;;6184576;28;20026;-72
2023/10/17 08:57:59;;;;;;;1.40;1.07;;;;;;;;;;6194778;28;20086;-73
2023/10/17 09:01:14;;;;;;;1.35;1.17;;;;;;;;;;6177745;28;20038;-72
2023/10/17 09:04:16;;;;;;;1.20;1.10;;;;;;;;;;6169752;28;20092;-72
2023/10/17 09:07:31;;;;;;;1.52;1.10;;;;;;;;;;6184432;28;20076;-72
2023/10/17 09:10:37;;;;;;;1.23;1.00;;;;;;;;;;6188421;28;20057;-73
2023/10/17 09:17:10;;;;;;;2.72;1.30;;;;;;;;;;6193675;28;20109;-73
2023/10/17 09:20:16;;;;;;;1.75;0.85;;;;;;;;;;6194458;28;20041;-73
2023/10/17 09:23:24;;;;;;;1.30;1.08;;;;;;;;;;6214249;28;20118;-74
2023/10/17 09:26:25;;;;;;;0.82;0.82;;;;;;;;;;6174613;28;20075;-75
2023/10/17 09:29:27;;;;;;;2.07;1.07;;;;;;;;;;6180588;28;20034;-73
2023/10/17 09:32:35;;;;;;;1.10;0.90;;;;;;;;;;6179748;28;20076;-73
2023/10/17 09:35:35;;;;;;;1.45;0.90;;;;;;;;;;6190495;28;20027;-72
2023/10/17 09:38:41;;;;;;;1.43;0.90;;;;;;;;;;6170077;28;20499;-72
2023/10/17 09:41:43;;;;;;;1.23;0.82;;;;;;;;;;6187320;28;20151;-72
2023/10/17 09:44:43;;;;;;;1.00;0.90;;;;;;;;;;6178829;28;20105;-74
2023/10/17 09:47:47;;;;;;;0.70;0.70;;;;;;;;;;6182551;28;20034;-74
2023/10/17 09:50:47;;;;;;;1.15;0.70;;;;;;;;;;6170470;28;20026;-73
2023/10/17 09:53:54;;;;;;;1.30;0.90;;;;;;;;;;6176840;28;20042;-74
2023/10/17 09:56:55;;;;;;;0.93;0.80;;;;;;;;;;6195359;28;20153;-73
2023/10/17 10:00:14;;;;;;;1.10;1.00;;;;;;;;;;6178953;28;20026;-73
2023/10/17 10:03:15;;;;;;;2.33;0.90;;;;;;;;;;6183549;28;20101;-73
2023/10/17 10:06:31;;;;;;;0.90;0.82;;;;;;;;;;6197135;28;20039;-73
2023/10/17 10:09:35;;;;;;;1.73;1.10;;;;;;;;;;6173306;28;20050;-74
2023/10/17 10:12:57;;;;;;;1.30;1.10;;;;;;;;;;6195218;28;20394;-73
2023/10/17 10:16:04;;;;;;;1.50;1.17;;;;;;;;;;6194689;28;20032;-76
2023/10/17 10:19:06;;;;;;;1.52;1.30;;;;;;;;;;6178123;28;20043;-73
2023/10/17 10:22:07;;;;;;;1.98;1.40;;;;;;;;;;6172073;28;20037;-73
2023/10/17 10:25:07;;;;;;;2.42;1.33;;;;;;;;;;6178555;28;20034;-73
2023/10/17 10:28:23;;;;;;;1.10;1.00;;;;;;;;;;6197747;28;20114;-73
2023/10/17 10:31:26;;;;;;;2.13;1.08;;;;;;;;;;6175932;28;20072;-74
2023/10/17 10:34:27;;;;;;;1.30;1.10;;;;;;;;;;6181943;28;20456;-73
2023/10/17 10:37:27;;;;;;;1.27;1.00;;;;;;;;;;6194911;28;20021;-75
2023/10/17 10:40:32;;;;;;;1.10;1.00;;;;;;;;;;6196840;28;20046;-75
2023/10/17 10:43:32;;;;;;;0.82;0.80;;;;;;;;;;6197786;28;20056;-75
2023/10/17 10:46:32;;;;;;;1.00;0.90;;;;;;;;;;6179726;28;20035;-75
2023/10/17 10:49:33;;;;;;;0.93;0.83;;;;;;;;;;6185377;28;20095;-75
2023/10/17 10:52:33;;;;;;;1.17;0.98;;;;;;;;;;6180916;28;20026;-76
2023/10/17 10:55:33;;;;;;;1.37;0.93;;;;;;;;;;6185622;28;20121;-74
2023/10/17 10:58:41;;;;;;;1.30;1.10;;;;;;;;;;6175479;28;20065;-75
2023/10/17 11:01:46;;;;;;;1.63;0.80;;;;;;;;;;6181606;28;20387;-75
2023/10/17 11:04:47;;;;;;;1.05;0.80;;;;;;;;;;6212775;28;20030;-76
2023/10/17 11:07:57;;;;;;;1.25;0.85;;;;;;;;;;6194187;28;20421;-76
2023/10/17 11:11:00;;;;;;;2.13;0.85;;;;;;;;;;6182101;28;20035;-74
2023/10/17 11:14:01;;;;;;;0.80;0.77;;;;;;;;;;6199389;28;20036;-75
2023/10/17 11:17:01;;;;;;;1.10;0.75;;;;;;;;;;6191598;28;20022;-75
2023/10/17 11:20:12;;;;;;;0.70;0.60;;;;;;;;;;6182786;28;20049;-75
2023/10/17 11:23:13;;;;;;;0.63;0.52;;;;;;;;;;6182238;28;20084;-75
2023/10/17 11:26:14;;;;;;;1.83;0.63;;;;;;;;;;6173191;28;20021;-75
2023/10/17 11:29:17;;;;;;;;;;;;;;;;;;6181521;28;20022;-75
2023/10/17 11:32:17;;;;;;;0.40;0.40;;;;;;;;;;6200311;28;19955;-75
2023/10/17 11:35:29;;;;;;;1.00;0.70;;;;;;;;;;6196086;28;20467;-75
2023/10/17 11:38:35;;;;;;;0.98;0.50;;;;;;;;;;6195541;28;20146;-75
2023/10/17 11:41:53;;;;;;;1.60;0.75;;;;;;;;;;6191014;28;20644;-76
2023/10/17 11:44:54;;;;;;;0.82;0.68;;;;;;;;;;6172340;28;20054;-73
2023/10/17 11:47:55;;;;;;;0.75;0.70;;;;;;;;;;6171596;28;20027;-73
2023/10/17 11:51:17;;;;;;;0.63;0.55;;;;;;;;;;6170919;28;20109;-73
2023/10/17 11:54:22;;;;;;;0.73;0.60;;;;;;;;;;6182368;28;20027;-73
2023/10/17 11:57:23;;;;;;;0.60;0.60;;;;;;;;;;6195833;28;20022;-73
2023/10/17 12:00:27;;;;;;;0.63;0.63;;;;;;;;;;6194189;28;20053;-74
2023/10/17 12:03:27;;;;;;;0.80;0.70;;;;;;;;;;6192166;28;20030;-73
2023/10/17 12:06:28;;;;;;;0.70;0.50;;;;;;;;;;6178307;28;20054;-73
2023/10/17 12:09:31;;;;;;;0.60;0.60;;;;;;;;;;6167365;28;20033;-73
2023/10/17 12:12:33;;;;;;;1.40;0.88;;;;;;;;;;6194963;28;20054;-73
2023/10/17 12:15:34;;;;;;;0.95;0.60;;;;;;;;;;6178637;28;20037;-73
2023/10/17 12:18:35;;;;;;;1.45;0.70;;;;;;;;;;6194776;28;20026;-73
2023/10/17 12:21:35;;;;;;;;;;;;;;;;;;6188991;28;20088;-73
2023/10/17 12:24:35;;;;;;;0.47;0.47;;;;;;;;;;6156639;28;19906;-73
2023/10/17 12:27:39;;;;;;;0.80;0.60;;;;;;;;;;6174265;28;20025;-73
2023/10/17 12:30:39;;;;;;;0.45;0.40;;;;;;;;;;6179282;28;20043;-73
2023/10/17 12:33:40;;;;;;;1.07;0.60;;;;;;;;;;6194157;28;20034;-75
2023/10/17 12:36:40;;;;;;;0.63;0.45;;;;;;;;;;6156407;28;20019;-73
2023/10/17 12:39:42;;;;;;;1.73;0.60;;;;;;;;;;6170329;28;20076;-73
2023/10/17 12:42:42;;;;;;;0.65;0.50;;;;;;;;;;6173237;28;20383;-73
2023/10/17 12:45:44;;;;;;;1.30;0.50;;;;;;;;;;6170041;28;20026;-75
2023/10/17 12:48:44;;;;;;;0.60;0.40;;;;;;;;;;6170804;28;20504;-73
2023/10/17 12:51:47;;;;;;;0.60;0.40;;;;;;;;;;6172495;28;20026;-73
2023/10/17 12:54:47;;;;;;;0.70;0.45;;;;;;;;;;6177333;28;20483;-75
2023/10/17 12:57:47;;;;;;;0.70;0.50;;;;;;;;;;6170957;28;20084;-75
2023/10/17 13:00:48;;;;;;;0.63;0.60;;;;;;;;;;6185306;28;20026;-75
2023/10/17 13:03:53;;;;;;;0.57;0.30;;;;;;;;;;6191664;28;20478;-75
2023/10/17 13:06:53;;;;;;;0.47;0.38;;;;;;;;;;6189104;28;20045;-75
2023/10/17 13:09:53;;;;;;;0.67;0.50;;;;;;;;;;6181256;28;20035;-75
2023/10/17 13:12:54;;;;;;;0.73;0.40;;;;;;;;;;6173572;28;20426;-75
2023/10/17 13:15:54;;;;;;;0.50;0.50;;;;;;;;;;6179848;28;20022;-75
2023/10/17 13:18:56;;;;;;;0.65;0.40;;;;;;;;;;6190131;28;20167;-75
2023/10/17 13:21:56;;;;;;;0.68;0.43;;;;;;;;;;6176047;28;20103;-75
2023/10/17 13:24:56;;;;;;;0.40;0.40;;;;;;;;;;6189541;28;20463;-75
2023/10/17 13:27:57;;;;;;;0.77;0.27;;;;;;;;;;6171124;28;20072;-74
2023/10/17 13:30:58;;;;;;;0.33;0.33;;;;;;;;;;6169854;28;20035;-75
2023/10/17 13:33:58;;;;;;;0.30;0.30;;;;;;;;;;6192640;28;20026;-75
2023/10/17 13:36:58;;;;;;;0.37;0.37;;;;;;;;;;6193811;28;20396;-76
2023/10/17 13:40:01;;;;;;;0.73;0.40;;;;;;;;;;6193005;28;20069;-75
2023/10/17 13:43:01;;;;;;;0.55;0.32;;;;;;;;;;6191887;28;20540;-75
2023/10/17 13:46:08;;;;;;;0.63;0.40;;;;;;;;;;6170354;28;20035;-75
2023/10/17 13:49:11;;;;;;;0.50;0.40;;;;;;;;;;6175772;28;20293;-75
2023/10/17 13:52:17;;;;;;;0.30;0.30;;;;;;;;;;6181424;28;20501;-75
2023/10/17 13:55:25;;;;;;;0.40;0.25;;;;;;;;;;6191983;28;20080;-74
2023/10/17 13:58:25;;;;;;;0.77;0.40;;;;;;;;;;6170656;28;20387;-75
2023/10/17 14:01:31;;;;;;;0.40;0.30;;;;;;;;;;6180036;28;20062;-75
2023/10/17 14:04:32;;;;;;;0.40;0.30;;;;;;;;;;6214317;28;20052;-75
2023/10/17 14:07:32;;;;;;;0.40;0.40;;;;;;;;;;6192790;28;20038;-75
2023/10/17 14:10:32;;;;;;;0.67;0.50;;;;;;;;;;6184892;28;20088;-75
2023/10/17 14:13:33;;;;;;;0.70;0.50;;;;;;;;;;6175585;28;20483;-75
2023/10/17 14:16:40;;;;;;;0.85;0.50;;;;;;;;;;6182968;28;20097;-75
2023/10/17 14:19:44;;;;;;;1.40;0.70;;;;;;;;;;6174503;28;20066;-75
2023/10/17 14:22:56;;;;;;;0.32;0.32;;;;;;;;;;6185323;28;20391;-75
2023/10/17 14:26:09;;;;;;;0.40;0.40;;;;;;;;;;6162370;28;20069;-75
2023/10/17 14:29:10;;;;;;;0.50;0.40;;;;;;;;;;6177912;28;20030;-75
2023/10/17 14:32:10;;;;;;;0.53;0.30;;;;;;;;;;6192776;28;20471;-75
2023/10/17 14:35:10;;;;;;;0.37;0.30;;;;;;;;;;6192982;28;20273;-75
2023/10/17 14:38:11;;;;;;;0.77;0.40;;;;;;;;;;6182898;28;20050;-75
2023/10/17 14:41:14;;;;;;;0.97;0.40;;;;;;;;;;6187775;28;20158;-75
2023/10/17 14:44:15;;;;;;;0.88;0.40;;;;;;;;;;6188704;28;20027;-75
2023/10/17 14:47:17;;;;;;;0.27;0.27;;;;;;;;;;6172810;28;20483;-75
2023/10/17 14:50:17;;;;;;;0.40;0.30;;;;;;;;;;6182458;28;20765;-75
2023/10/17 14:53:19;;;;;;;1.13;0.50;;;;;;;;;;6180717;28;20027;-75
2023/10/17 14:56:21;;;;;;;0.60;0.40;;;;;;;;;;6185168;28;20422;-75
2023/10/17 14:59:22;;;;;;;1.27;0.20;;;;;;;;;;6195821;28;20030;-75
2023/10/17 15:02:23;;;;;;;0.50;0.43;;;;;;;;;;6197245;28;20030;-75
2023/10/17 15:05:24;;;;;;;;;;;;;;;;;;6199992;28;20058;-75
2023/10/17 15:08:25;;;;;;;0.50;0.33;;;;;;;;;;6191579;28;19914;-76
2023/10/17 15:11:26;;;;;;;0.40;0.40;;;;;;;;;;6174155;28;20023;-74
2023/10/17 15:14:26;;;;;;;0.60;0.40;;;;;;;;;;6180396;28;20037;-75
2023/10/17 15:17:26;;;;;;;0.40;0.30;;;;;;;;;;6183434;28;20458;-71
2023/10/17 15:20:26;;;;;;;0.30;0.30;;;;;;;;;;6186645;28;20373;-72
2023/10/17 15:23:27;;;;;;;0.87;0.30;;;;;;;;;;6171217;28;20029;-72
2023/10/17 15:26:27;;;;;;;0.87;0.50;;;;;;;;;;6177675;28;20054;-74
2023/10/17 15:29:27;;;;;;;0.97;0.47;;;;;;;;;;6184983;28;20026;-73
2023/10/17 15:32:27;;;;;;;0.50;0.40;;;;;;;;;;6194778;28;20033;-72
2023/10/17 15:35:28;;;;;;;0.60;0.40;;;;;;;;;;6185948;28;20034;-74
2023/10/17 15:38:30;;;;;;;0.43;0.33;;;;;;;;;;6189648;28;20495;-72
2023/10/17 15:41:31;;;;;;;0.50;0.40;;;;;;;;;;6181190;28;20079;-73
2023/10/17 15:44:34;;;;;;;0.80;0.40;;;;;;;;;;6181479;28;20027;-73
2023/10/17 15:47:34;;;;;;;0.63;0.40;;;;;;;;;;6174859;28;20022;-72
2023/10/17 15:50:40;;;;;;;0.53;0.53;;;;;;;;;;6174383;28;20505;-72
2023/10/17 15:53:40;;;;;;;0.60;0.60;;;;;;;;;;6195082;28;20181;-73
2023/10/17 15:56:40;;;;;;;0.60;0.40;;;;;;;;;;6215651;28;20026;-73
2023/10/17 15:59:41;;;;;;;0.60;0.40;;;;;;;;;;6205442;28;20026;-73
2023/10/17 16:02:47;;;;;;;0.40;0.40;;;;;;;;;;6174440;28;20109;-73
2023/10/17 16:05:51;;;;;;;0.95;0.45;;;;;;;;;;6171119;28;20031;-72
2023/10/17 16:08:51;;;;;;;1.20;0.60;;;;;;;;;;6155184;28;20034;-73
2023/10/17 16:11:52;;;;;;;1.57;0.60;;;;;;;;;;6187219;28;20452;-72
2023/10/17 16:14:53;;;;;;;0.50;0.50;;;;;;;;;;6186863;28;20475;-72
2023/10/17 16:17:53;;;;;;;2.03;1.07;;;;;;;;;;6193808;28;20045;-73
2023/10/17 16:20:53;;;;;;;1.73;0.87;;;;;;;;;;6180732;28;20278;-72
2023/10/17 16:23:53;;;;;;;1.10;0.70;;;;;;;;;;6170823;28;20038;-73
2023/10/17 16:26:53;;;;;;;1.10;0.50;;;;;;;;;;6187977;28;20434;-75
2023/10/17 16:29:55;;;;;;;0.70;0.50;;;;;;;;;;6195060;28;20032;-74
2023/10/17 16:32:56;;;;;;;0.70;0.50;;;;;;;;;;6179671;28;20022;-74
2023/10/17 16:35:57;;;;;;;0.83;0.80;;;;;;;;;;6175490;28;20030;-74
2023/10/17 16:38:57;;;;;;;1.10;0.60;;;;;;;;;;6186251;28;20377;-76
2023/10/17 16:41:57;;;;;;;1.20;0.70;;;;;;;;;;6171553;28;20031;-74
2023/10/17 16:44:58;;;;;;;0.70;0.50;;;;;;;;;;6185169;28;20018;-74
2023/10/17 16:47:59;;;;;;;0.85;0.68;;;;;;;;;;6186768;28;20030;-74
2023/10/17 16:50:59;;;;;;;1.10;0.80;;;;;;;;;;6193164;28;20025;-74
2023/10/17 16:54:00;;;;;;;1.27;0.50;;;;;;;;;;6179546;28;20031;-77
2023/10/17 16:57:00;;;;;;;0.57;0.50;;;;;;;;;;6175389;28;20042;-74
2023/10/17 17:00:00;;;;;;;0.50;0.50;;;;;;;;;;6174416;28;20376;-75
2023/10/17 17:03:01;;;;;;;0.60;0.57;;;;;;;;;;6169357;28;20054;-74
2023/10/17 17:06:02;;;;;;;1.15;0.40;;;;;;;;;;6165794;28;20061;-75
2023/10/17 17:09:04;;;;;;;0.60;0.60;;;;;;;;;;6168443;28;20050;-75
2023/10/17 17:12:05;;;;;;;0.80;0.43;;;;;;;;;;6173476;28;20035;-72
2023/10/17 17:15:06;;;;;;;1.17;0.60;;;;;;;;;;6175116;28;20443;-74
2023/10/17 17:18:07;;;;;;;1.20;0.50;;;;;;;;;;6203073;28;20060;-72
2023/10/17 17:21:08;;;;;;;0.90;0.52;;;;;;;;;;6153159;28;20080;-72
2023/10/17 17:24:08;;;;;;;0.90;0.60;;;;;;;;;;6165976;28;20046;-72
2023/10/17 17:27:09;;;;;;;2.67;0.93;;;;;;;;;;6171611;28;20058;-72
2023/10/17 17:30:14;;;;;;;2.87;0.60;;;;;;;;;;6164610;28;20027;-71
2023/10/17 17:33:16;;;;;;;0.57;0.50;;;;;;;;;;6174408;28;20027;-74
2023/10/17 17:36:18;;;;;;;;;;;;;;;;;;6173392;28;20135;-74
2023/10/17 17:39:21;;;;;;;0.93;0.75;;;;;;;;;;6170730;28;19925;-74
2023/10/17 17:42:21;;;;;;;1.05;0.90;;;;;;;;;;6168775;28;20441;-74
2023/10/17 17:45:23;;;;;;;2.13;1.00;;;;;;;;;;6167011;28;20049;-73
2023/10/17 17:48:24;;;;;;;0.68;0.65;;;;;;;;;;6170743;28;20064;-73
2023/10/17 17:51:24;;;;;;;1.60;0.73;;;;;;;;;;6171960;28;21665;-73
2023/10/17 17:54:24;;;;;;;0.90;0.77;;;;;;;;;;6170873;28;20054;-73
2023/10/17 17:57:24;;;;;;;0.97;0.63;;;;;;;;;;6172457;28;20043;-75
2023/10/17 18:00:27;;;;;;;1.47;0.80;;;;;;;;;;6169783;28;20391;-73
2023/10/17 18:03:27;;;;;;;1.00;0.70;;;;;;;;;;6169564;28;20046;-75
2023/10/17 18:06:28;;;;;;;1.10;0.70;;;;;;;;;;6170635;28;20039;-74
2023/10/17 18:09:28;;;;;;;1.53;0.87;;;;;;;;;;6173498;28;20033;-75
2023/10/17 18:12:30;;;;;;;0.77;0.40;;;;;;;;;;6220180;28;20016;-72
2023/10/17 18:15:31;;;;;;;0.73;0.52;;;;;;;;;;6194208;28;20030;-73
2023/10/17 18:18:33;;;;;;;0.50;0.50;;;;;;;;;;6187163;28;20065;-72
2023/10/17 18:21:33;;;;;;;0.80;0.50;;;;;;;;;;6217858;28;20042;-72
2023/10/17 18:24:35;;;;;;;1.33;0.73;;;;;;;;;;6197744;28;20038;-73
2023/10/17 18:27:35;;;;;;;0.88;0.57;;;;;;;;;;5826637;27;10000179;-73
2023/10/17 18:30:36;;;;;;;1.33;0.70;;;;;;;;;;6182314;28;20023;-73
2023/10/17 18:33:37;;;;;;;0.60;0.50;;;;;;;;;;6190310;28;20034;-73
2023/10/17 18:36:37;;;;;;;0.95;0.73;;;;;;;;;;6173843;28;20053;-73
2023/10/17 18:39:38;;;;;;;0.60;0.60;;;;;;;;;;6170526;28;20059;-73
2023/10/17 18:42:38;;;;;;;0.63;0.60;;;;;;;;;;6170393;28;20096;-73
2023/10/17 18:45:39;;;;;;;0.70;0.70;;;;;;;;;;6173671;28;20034;-76
2023/10/17 18:48:39;;;;;;;1.70;0.73;;;;;;;;;;6186195;28;20784;-76
2023/10/17 18:51:40;;;;;;;1.83;0.90;;;;;;;;;;6170292;28;20042;-76
2023/10/17 18:54:40;;;;;;;0.90;0.70;;;;;;;;;;6170996;28;20054;-76
2023/10/17 18:57:40;;;;;;;0.77;0.60;;;;;;;;;;6175732;28;20026;-76
2023/10/17 19:00:41;;;;;;;0.50;0.50;;;;;;;;;;6169466;28;20046;-76
2023/10/17 19:03:42;;;;;;;1.83;0.85;;;;;;;;;;6198821;28;20421;-76
2023/10/17 19:06:43;;;;;;;0.90;0.65;;;;;;;;;;6170902;28;20154;-76
2023/10/17 19:09:43;;;;;;;1.50;0.80;;;;;;;;;;6171336;28;21353;-76
2023/10/17 19:12:44;;;;;;;0.70;0.70;;;;;;;;;;6175599;28;20019;-76
2023/10/17 19:15:44;;;;;;;0.60;0.60;;;;;;;;;;6168180;28;20451;-76
2023/10/17 19:18:44;;;;;;;0.60;0.60;;;;;;;;;;6169603;28;20049;-76
2023/10/17 19:21:45;;;;;;;1.00;0.60;;;;;;;;;;6171904;28;20056;-76
2023/10/17 19:24:45;;;;;;;1.17;0.87;;;;;;;;;;6169321;28;20497;-76
2023/10/17 19:27:45;;;;;;;1.90;0.90;;;;;;;;;;6172650;28;20085;-75
2023/10/17 19:30:45;;;;;;;1.33;1.10;;;;;;;;;;6186673;28;20118;-76
2023/10/17 19:33:46;;;;;;;0.80;0.80;;;;;;;;;;6178680;28;20030;-76
2023/10/17 19:36:46;;;;;;;2.23;1.00;;;;;;;;;;6186888;28;20038;-76
2023/10/17 19:39:48;;;;;;;1.38;1.05;;;;;;;;;;6171392;28;20142;-76
2023/10/17 19:42:49;;;;;;;1.52;0.90;;;;;;;;;;6171553;28;20153;-76
2023/10/17 19:45:49;;;;;;;1.02;0.80;;;;;;;;;;6175075;28;20039;-76
2023/10/17 19:48:49;;;;;;;0.80;0.70;;;;;;;;;;6172216;28;20542;-76
2023/10/17 19:51:49;;;;;;;1.33;0.90;;;;;;;;;;6169524;28;20030;-76
2023/10/17 19:54:50;;;;;;;1.10;0.83;;;;;;;;;;6166550;28;20748;-73
2023/10/17 19:57:52;;;;;;;1.00;0.87;;;;;;;;;;6172622;28;20034;-76
2023/10/17 20:00:52;;;;;;;1.10;0.98;;;;;;;;;;6174051;28;20411;-76
2023/10/17 20:03:53;;;;;;;1.50;0.90;;;;;;;;;;6170127;28;20133;-76
2023/10/17 20:06:54;;;;;;;1.05;0.95;;;;;;;;;;6167349;28;20031;-76
2023/10/17 20:09:54;;;;;;;2.13;1.20;;;;;;;;;;6171458;28;20121;-76
2023/10/17 20:12:55;;;;;;;1.60;1.30;;;;;;;;;;6175144;28;21371;-76
2023/10/17 20:15:55;;;;;;;4.27;2.27;;;;;;;;;;6168963;28;20023;-76
2023/10/17 20:18:55;;;;;;;7.87;3.33;;;;;;;;;;6166791;28;20816;-76
2023/10/17 20:21:56;;;;;;;5.43;2.88;;;;;;;;;;6149076;28;20041;-76
2023/10/17 20:24:56;;;;;;;4.07;2.00;;;;;;;;;;6163979;28;20133;-76
2023/10/17 20:27:56;;;;;;;2.83;1.97;;;;;;;;;;6173290;28;20062;-76
2023/10/17 20:30:57;;;;;;;3.20;1.80;;;;;;;;;;6161313;28;20046;-76